首页
METAR-TAF:

METAR-TAF

机场 :

里士满国际机场

里士满, 弗吉尼亚州, 美国

纬度: 37-30-40N, 经度: 077-19-24W, 海拔: 51米

当前天气观测

该预报发布于19分钟前的13:54 UTC
风速5节,风向北转西北
温度 -3°C
湿度 80%
气压 1022 hPa
能見度: 14.5公里
少量云层高于16000英尺
少量云层高于21000英尺

METAR: KRIC 111354Z 33005KT 9SM FEW160 FEW210 M03/M06 A3018 RMK AO2 SLP227 T10281061

时间: 09:13 (14:13 UTC)

预报

该预报发布于2小时和53分钟前的11:20 UTC
预报有效从11日的 12点(UTC)到 12日的 12点(UTC)
风速5节,风向
能見度: 10公里
多云层高于25000英尺
从 11日的 1400点(UTC)
风速5节,风向西北
能見度: 10公里
天空无云
从 11日的 2000点(UTC)
风速4节,风向西转西南
能見度: 10公里
天空无云

TAF: KRIC 111120Z 1112/1212 36005KT P6SM BKN250 FM111400 31005KT P6SM SKC FM112000 25004KT P6SM SKC

超过4000个机场的气象观测和天气预报(METAR&TAF报告)。

可查询的气象台以黄色和红色小点在地图上表示。

将鼠标移到小点上方,可查看气象台名称。

然后点击查看天气观测和预报。

如需切换地图:点击带黑十字的绿色按钮放大地图;点击带横线的绿色按钮缩小地图;或者点击绿色箭头查看邻近地区的地图。


METAR-TAF: